Smith Island, WA current weather conditions

sailwx.info

Wind from 110 at 2 knots gusting 2

Air temperature 18.0° C
Dewpoint 9.0° C

Last reported at 2019-Aug-23 03:50 UTC.
Time now 2019-Aug-23 04:38 UTC

Location: N 48°19' W 122°50'.
View on Google Maps.

See reports from other nearby stations

  
Tides and Currents Weather Stations Pressure Air Temp Water Temp Dewpoint Dewpoint Depression Visibility Wind Speed Wind Dir Waves Ship Positions
date/time (UTC)wind fromknots sea level pressurealtimeterstation pressurevisibilityair tempwater tempwave heightnotes
2019-Aug-23 03:50 110 2 gusting 2 18.0
2019-Aug-23 02:50 060 4 gusting 5 17.9
2019-Aug-23 01:50 080 2 gusting 2 18.8
2019-Aug-23 00:50 040 1 gusting 1 18.2
2019-Aug-22 23:50 300 0 gusting 1 17.4
2019-Aug-22 22:50 300 5 gusting 5 16.7
2019-Aug-22 21:50 270 2 gusting 4 16.4
2019-Aug-22 20:50 300 4 gusting 5 15.1
2019-Aug-22 19:50 230 4 gusting 5 16.1
2019-Aug-22 18:50 230 2 gusting 4 14.8
2019-Aug-22 17:50 190 1 gusting 1 14.4
2019-Aug-22 16:50 130 2 gusting 2 13.9
2019-Aug-22 15:50 190 4 gusting 5 13.8
2019-Aug-22 14:50 180 6 gusting 7 12.9
2019-Aug-22 13:50 180 6 gusting 6 12.4
2019-Aug-22 12:50 150 2 gusting 2 12.5
2019-Aug-22 11:50 310 2 gusting 4 12.8
2019-Aug-22 10:50 310 6 gusting 9 13.2
2019-Aug-22 09:50 280 8 gusting 11 12.6
2019-Aug-22 08:50 300 7 gusting 12 13.3
2019-Aug-22 07:50 300 11 gusting 13 13.2
2019-Aug-22 06:50 290 14 gusting 18 13.3
2019-Aug-22 05:50 290 13 gusting 15 13.4
2019-Aug-22 04:50 270 17 gusting 19 13.9
2019-Aug-22 03:50 270 20 gusting 24 14.4
2019-Aug-22 02:50 260 18 gusting 20 13.8
2019-Aug-22 01:50 250 18 gusting 20 13.6
2019-Aug-22 00:50 220 8 gusting 12 13.8
2019-Aug-21 23:50 220 2 gusting 4 13.7
2019-Aug-21 22:50 160 2 gusting 2 13.2
2019-Aug-21 21:50 210 2 gusting 4 13.0
2019-Aug-21 20:50 220 5 gusting 6 13.1
2019-Aug-21 19:50 210 12 gusting 14 14.3
2019-Aug-21 18:50 150 20 gusting 21 15.8
2019-Aug-21 17:50 140 18 gusting 20 15.6
2019-Aug-21 16:50 140 15 gusting 18 15.4
2019-Aug-21 15:50 130 19 gusting 20 15.0
2019-Aug-21 14:50 150 15 gusting 17 15.6
2019-Aug-21 13:50 180 5 gusting 6 15.7
2019-Aug-21 12:50 160 12 gusting 13 16.6
2019-Aug-21 11:50 140 17 gusting 19 17.1
2019-Aug-21 10:50 140 17 gusting 19 16.7
2019-Aug-21 09:50 140 14 gusting 17 17.5
2019-Aug-21 08:50 120 8 gusting 11 16.4
2019-Aug-21 07:50 130 8 gusting 12 16.8
2019-Aug-21 06:50 170 14 gusting 15 16.6
2019-Aug-21 05:50 210 13 gusting 15 15.319.3
2019-Aug-21 04:50 220 14 gusting 15 14.5